TAP20LZ LEIB-LEPA
Flight info
| Callsign | TAP20LZ |
|---|---|
| Flight time | N/A |
| Altitude | 34000 |
| Route | XOST5F XOSTA M134 VLC N733 CJN PALIO AKOKI GOTOR TLD NATPA MELON CCS ELVAR UPULO UPUL1A |
| Aircraft | A21N/M-V/N |
Departure
| Time | 2026-05-07 13:56 |
|---|---|
| Airport | Ibiza Airport (LEIB) |
Arrival
| Time | N/A |
|---|---|
| Airport | Palma de Mallorca Airport (LEPA) |
| Time | Latitude | Longitude | Altitude | Speed | Heading |
|---|---|---|---|---|---|
| 2026-05-07 13:46 | 38.87534 | 1.36870 | 29 ft | 0 kts | 333° |
| 2026-05-07 13:49 | 38.87537 | 1.36869 | 29 ft | 0 kts | 3° |
| 2026-05-07 13:49 | 38.87540 | 1.36874 | 29 ft | 0 kts | 68° |
| 2026-05-07 13:50 | 38.87535 | 1.36881 | 29 ft | 2 kts | 143° |
| 2026-05-07 13:50 | 38.87516 | 1.36898 | 29 ft | 4 kts | 151° |
| 2026-05-07 13:50 | 38.87485 | 1.36895 | 29 ft | 5 kts | 219° |
| 2026-05-07 13:50 | 38.87460 | 1.36846 | 29 ft | 7 kts | 242° |
| 2026-05-07 13:51 | 38.87437 | 1.36802 | 29 ft | 6 kts | 220° |
| 2026-05-07 13:51 | 38.87389 | 1.36798 | 29 ft | 8 kts | 160° |
| 2026-05-07 13:51 | 38.87331 | 1.36834 | 29 ft | 10 kts | 154° |
| 2026-05-07 13:51 | 38.87269 | 1.36814 | 29 ft | 10 kts | 229° |
| 2026-05-07 13:52 | 38.87230 | 1.36725 | 29 ft | 12 kts | 242° |
| 2026-05-07 13:52 | 38.87186 | 1.36619 | 29 ft | 14 kts | 242° |
| 2026-05-07 13:52 | 38.87137 | 1.36502 | 29 ft | 15 kts | 241° |
| 2026-05-07 13:52 | 38.87085 | 1.36376 | 29 ft | 16 kts | 242° |
| 2026-05-07 13:53 | 38.87030 | 1.36241 | 29 ft | 17 kts | 242° |
| 2026-05-07 13:53 | 38.86972 | 1.36099 | 29 ft | 18 kts | 242° |
| 2026-05-07 13:53 | 38.86910 | 1.35952 | 29 ft | 19 kts | 241° |
| 2026-05-07 13:53 | 38.86850 | 1.35811 | 29 ft | 9 kts | 242° |
| 2026-05-07 13:54 | 38.86795 | 1.35775 | 29 ft | 10 kts | 163° |
| 2026-05-07 13:54 | 38.86739 | 1.35840 | 29 ft | 12 kts | 115° |
| 2026-05-07 13:54 | 38.86723 | 1.35950 | 29 ft | 13 kts | 73° |
| 2026-05-07 13:54 | 38.86739 | 1.36001 | 29 ft | 2 kts | 63° |
| 2026-05-07 13:55 | 38.86751 | 1.36030 | 29 ft | 4 kts | 63° |
| 2026-05-07 13:55 | 38.86790 | 1.36127 | 29 ft | 37 kts | 60° |
| 2026-05-07 13:55 | 38.87055 | 1.36764 | 29 ft | 121 kts | 63° |
| 2026-05-07 13:55 | 38.87554 | 1.37996 | 79 ft | 181 kts | 64° |
| 2026-05-07 13:56 | 38.88008 | 1.39598 | 578 ft | 205 kts | 73° |
| 2026-05-07 13:56 | 38.88403 | 1.41482 | 1148 ft | 238 kts | 75° |
| 2026-05-07 13:56 | 38.88786 | 1.43672 | 1670 ft | 257 kts | 78° |
| 2026-05-07 13:56 | 38.89192 | 1.45908 | 2297 ft | 259 kts | 75° |
| 2026-05-07 13:57 | 38.89650 | 1.48153 | 2916 ft | 262 kts | 75° |
| 2026-05-07 13:57 | 38.90100 | 1.50421 | 3291 ft | 263 kts | 76° |
| 2026-05-07 13:57 | 38.90552 | 1.52688 | 3392 ft | 264 kts | 71° |
| 2026-05-07 13:57 | 38.91390 | 1.54767 | 3402 ft | 263 kts | 51° |
| 2026-05-07 13:58 | 38.92660 | 1.56444 | 3409 ft | 263 kts | 41° |
| 2026-05-07 13:58 | 38.94050 | 1.58001 | 3408 ft | 263 kts | 40° |
| 2026-05-07 13:58 | 38.95431 | 1.59528 | 3408 ft | 263 kts | 40° |
| 2026-05-07 13:58 | 38.96802 | 1.61070 | 3463 ft | 262 kts | 41° |
| 2026-05-07 13:59 | 38.98171 | 1.62629 | 4057 ft | 266 kts | 41° |
| 2026-05-07 13:59 | 38.99597 | 1.64182 | 4678 ft | 279 kts | 34° |
| 2026-05-07 13:59 | 39.01379 | 1.65290 | 5312 ft | 291 kts | 16° |
| 2026-05-07 13:59 | 39.03399 | 1.65749 | 5953 ft | 302 kts | 6° |
| 2026-05-07 14:00 | 39.05500 | 1.66015 | 6579 ft | 308 kts | 5° |
| 2026-05-07 14:00 | 39.07619 | 1.66107 | 7186 ft | 311 kts | 353° |
| 2026-05-07 14:00 | 39.09645 | 1.65219 | 7809 ft | 314 kts | 328° |
| 2026-05-07 14:00 | 39.11214 | 1.63290 | 8444 ft | 316 kts | 304° |
| 2026-05-07 14:01 | 39.12374 | 1.60851 | 9089 ft | 319 kts | 300° |
| 2026-05-07 14:01 | 39.13474 | 1.58363 | 9717 ft | 326 kts | 300° |
| 2026-05-07 14:01 | 39.14637 | 1.55750 | 10353 ft | 353 kts | 300° |
| 2026-05-07 14:01 | 39.15914 | 1.52931 | 10986 ft | 380 kts | 301° |
| 2026-05-07 14:02 | 39.17303 | 1.49899 | 11628 ft | 406 kts | 300° |
| 2026-05-07 14:02 | 39.18499 | 1.46605 | 12375 ft | 404 kts | 289° |
| 2026-05-07 14:02 | 39.19080 | 1.43116 | 13122 ft | 404 kts | 275° |
| 2026-05-07 14:02 | 39.19049 | 1.39470 | 13892 ft | 404 kts | 265° |
| 2026-05-07 14:03 | 39.18761 | 1.35924 | 14637 ft | 404 kts | 263° |
| 2026-05-07 14:03 | 39.18431 | 1.32357 | 15386 ft | 404 kts | 263° |
| 2026-05-07 14:03 | 39.18098 | 1.28715 | 16150 ft | 415 kts | 263° |
| 2026-05-07 14:03 | 39.17765 | 1.24987 | 16901 ft | 432 kts | 263° |
| 2026-05-07 14:04 | 39.17422 | 1.21059 | 17664 ft | 448 kts | 263° |
| 2026-05-07 14:04 | 39.17072 | 1.17013 | 18464 ft | 463 kts | 263° |
| 2026-05-07 14:04 | 39.16720 | 1.12926 | 19560 ft | 455 kts | 263° |
| 2026-05-07 14:04 | 39.16375 | 1.08923 | 20228 ft | 453 kts | 263° |
| 2026-05-07 14:05 | 39.16194 | 1.06829 | 20557 ft | 454 kts | 264° |
| 2026-05-07 14:05 | 39.15838 | 1.02730 | 21204 ft | 452 kts | 264° |
| 2026-05-07 14:05 | 39.15492 | 0.98683 | 21836 ft | 453 kts | 264° |
| 2026-05-07 14:05 | 39.15146 | 0.94665 | 22464 ft | 453 kts | 264° |
| 2026-05-07 14:06 | 39.14796 | 0.90657 | 23091 ft | 452 kts | 264° |
| 2026-05-07 14:06 | 39.14443 | 0.86649 | 23719 ft | 451 kts | 264° |
| 2026-05-07 14:06 | 39.14088 | 0.82637 | 24352 ft | 457 kts | 264° |
| 2026-05-07 14:06 | 39.13823 | 0.78555 | 24972 ft | 469 kts | 269° |
| 2026-05-07 14:07 | 39.13982 | 0.74305 | 25603 ft | 472 kts | 277° |
| 2026-05-07 14:07 | 39.14596 | 0.70208 | 26224 ft | 470 kts | 284° |
| 2026-05-07 14:07 | 39.15608 | 0.66249 | 26852 ft | 468 kts | 289° |
| 2026-05-07 14:07 | 39.16754 | 0.62335 | 27481 ft | 466 kts | 290° |
| 2026-05-07 14:08 | 39.17914 | 0.58470 | 28108 ft | 463 kts | 290° |
| 2026-05-07 14:08 | 39.19062 | 0.54619 | 28736 ft | 459 kts | 290° |
| 2026-05-07 14:08 | 39.20191 | 0.50791 | 29364 ft | 456 kts | 290° |
| 2026-05-07 14:08 | 39.21291 | 0.47036 | 29982 ft | 452 kts | 290° |
| 2026-05-07 14:09 | 39.22396 | 0.43262 | 30611 ft | 449 kts | 290° |
| 2026-05-07 14:09 | 39.23495 | 0.39498 | 31239 ft | 446 kts | 290° |
| 2026-05-07 14:09 | 39.24575 | 0.35792 | 31862 ft | 443 kts | 290° |
| 2026-05-07 14:09 | 39.25629 | 0.32156 | 32480 ft | 443 kts | 289° |
| 2026-05-07 14:10 | 39.26710 | 0.28409 | 33113 ft | 443 kts | 289° |
| 2026-05-07 14:10 | 39.27781 | 0.24692 | 33623 ft | 445 kts | 289° |
| 2026-05-07 14:10 | 39.28865 | 0.20927 | 33919 ft | 452 kts | 289° |
| 2026-05-07 14:11 | 39.31067 | 0.13277 | 33961 ft | 459 kts | 289° |
| 2026-05-07 14:11 | 39.33288 | 0.05541 | 33963 ft | 459 kts | 289° |
| 2026-05-07 14:12 | 39.35488 | -0.02136 | 33963 ft | 459 kts | 289° |
| 2026-05-07 14:12 | 39.37692 | -0.09829 | 33963 ft | 459 kts | 289° |
| 2026-05-07 14:13 | 39.39894 | -0.17551 | 33963 ft | 459 kts | 289° |
| 2026-05-07 14:13 | 39.42061 | -0.25187 | 33963 ft | 459 kts | 289° |
| 2026-05-07 14:14 | 39.44230 | -0.32860 | 33963 ft | 459 kts | 289° |
| 2026-05-07 14:14 | 39.46397 | -0.40548 | 33964 ft | 459 kts | 289° |
| 2026-05-07 14:15 | 39.48753 | -0.48097 | 33963 ft | 460 kts | 294° |
| 2026-05-07 14:15 | 39.51720 | -0.55447 | 33964 ft | 461 kts | 298° |
| 2026-05-07 14:16 | 39.54883 | -0.62583 | 33963 ft | 461 kts | 299° |
| 2026-05-07 14:16 | 39.57968 | -0.69556 | 33963 ft | 461 kts | 298° |
| 2026-05-07 14:17 | 39.61189 | -0.76886 | 33963 ft | 461 kts | 298° |
| 2026-05-07 14:17 | 39.64325 | -0.84033 | 33963 ft | 461 kts | 298° |
| 2026-05-07 14:18 | 39.67480 | -0.91234 | 33963 ft | 461 kts | 298° |
| 2026-05-07 14:18 | 39.70633 | -0.98446 | 33963 ft | 461 kts | 298° |
| 2026-05-07 14:19 | 39.73786 | -1.05691 | 33964 ft | 462 kts | 298° |
| 2026-05-07 14:19 | 39.76923 | -1.12907 | 33970 ft | 464 kts | 298° |
| 2026-05-07 14:20 | 39.80110 | -1.20206 | 33984 ft | 465 kts | 298° |
| 2026-05-07 14:20 | 39.83290 | -1.27524 | 34005 ft | 465 kts | 298° |
| 2026-05-07 14:21 | 39.86449 | -1.34830 | 34023 ft | 465 kts | 298° |
| 2026-05-07 14:21 | 39.89602 | -1.42141 | 34033 ft | 465 kts | 298° |
| 2026-05-07 14:22 | 39.92744 | -1.49435 | 34038 ft | 465 kts | 298° |
| 2026-05-07 14:22 | 39.95894 | -1.56763 | 34041 ft | 465 kts | 298° |
| 2026-05-07 14:23 | 39.99039 | -1.64102 | 34042 ft | 465 kts | 298° |
| 2026-05-07 14:23 | 40.02114 | -1.71313 | 34043 ft | 465 kts | 297° |
| 2026-05-07 14:24 | 40.05235 | -1.78649 | 34043 ft | 465 kts | 297° |
| 2026-05-07 14:24 | 40.08379 | -1.86042 | 34043 ft | 465 kts | 297° |
| 2026-05-07 14:25 | 40.11473 | -1.93309 | 34043 ft | 465 kts | 297° |
| 2026-05-07 14:25 | 40.14608 | -2.00660 | 34043 ft | 465 kts | 297° |
| 2026-05-07 14:26 | 40.17750 | -2.08029 | 34043 ft | 465 kts | 297° |
| 2026-05-07 14:26 | 40.20887 | -2.15396 | 34043 ft | 465 kts | 297° |
| 2026-05-07 14:27 | 40.24004 | -2.22783 | 34043 ft | 465 kts | 297° |
| 2026-05-07 14:27 | 40.27087 | -2.30150 | 34043 ft | 465 kts | 297° |
| 2026-05-07 14:28 | 40.30176 | -2.37554 | 34043 ft | 465 kts | 297° |
| 2026-05-07 14:28 | 40.33154 | -2.45084 | 34043 ft | 463 kts | 291° |
| 2026-05-07 14:29 | 40.34922 | -2.53096 | 34043 ft | 461 kts | 278° |
| 2026-05-07 14:29 | 40.35198 | -2.61405 | 34043 ft | 458 kts | 264° |
| 2026-05-07 14:30 | 40.34033 | -2.69508 | 34046 ft | 457 kts | 253° |
| 2026-05-07 14:30 | 40.32288 | -2.77441 | 34043 ft | 457 kts | 252° |
| 2026-05-07 14:31 | 40.30513 | -2.85449 | 34043 ft | 457 kts | 253° |
| 2026-05-07 14:31 | 40.28773 | -2.93376 | 34043 ft | 456 kts | 253° |
| 2026-05-07 14:32 | 40.27022 | -3.01360 | 34043 ft | 456 kts | 253° |
| 2026-05-07 14:32 | 40.25272 | -3.09314 | 34043 ft | 456 kts | 252° |
| 2026-05-07 14:33 | 40.23507 | -3.17260 | 34043 ft | 455 kts | 252° |
| 2026-05-07 14:33 | 40.21742 | -3.25192 | 34043 ft | 455 kts | 252° |
| 2026-05-07 14:34 | 40.19989 | -3.33093 | 34043 ft | 455 kts | 252° |
| 2026-05-07 14:34 | 40.18225 | -3.40991 | 34043 ft | 455 kts | 252° |
| 2026-05-07 14:35 | 40.16441 | -3.48941 | 34043 ft | 456 kts | 252° |
| 2026-05-07 14:35 | 40.15672 | -3.52353 | 34043 ft | 455 kts | 252° |
| 2026-05-07 14:36 | 40.13874 | -3.60309 | 34043 ft | 455 kts | 252° |
| 2026-05-07 14:36 | 40.12101 | -3.68131 | 34043 ft | 455 kts | 252° |
| 2026-05-07 14:37 | 40.10310 | -3.76048 | 34043 ft | 455 kts | 252° |
| 2026-05-07 14:37 | 40.07602 | -3.87949 | 34043 ft | 455 kts | 252° |
| 2026-05-07 14:38 | 40.05799 | -3.95810 | 34043 ft | 455 kts | 252° |
| 2026-05-07 14:38 | 40.03975 | -4.03724 | 34043 ft | 455 kts | 252° |
| 2026-05-07 14:39 | 40.02156 | -4.11581 | 34043 ft | 455 kts | 252° |
| 2026-05-07 14:39 | 40.00320 | -4.19479 | 34043 ft | 455 kts | 252° |
| 2026-05-07 14:40 | 39.98479 | -4.27366 | 34043 ft | 455 kts | 252° |
| 2026-05-07 14:40 | 39.96684 | -4.35270 | 34043 ft | 456 kts | 253° |
| 2026-05-07 14:41 | 39.95074 | -4.43217 | 34043 ft | 456 kts | 254° |
| 2026-05-07 14:41 | 39.93459 | -4.51157 | 34043 ft | 456 kts | 254° |
| 2026-05-07 14:42 | 39.91827 | -4.59150 | 34043 ft | 456 kts | 254° |
| 2026-05-07 14:42 | 39.90223 | -4.67036 | 34043 ft | 456 kts | 253° |
| 2026-05-07 14:43 | 39.88606 | -4.74872 | 34043 ft | 456 kts | 253° |
| 2026-05-07 14:43 | 39.86950 | -4.82821 | 34043 ft | 456 kts | 253° |
| 2026-05-07 14:44 | 39.85301 | -4.90762 | 34043 ft | 456 kts | 253° |
| 2026-05-07 14:44 | 39.83650 | -4.98702 | 34042 ft | 456 kts | 252° |
| 2026-05-07 14:45 | 39.81997 | -5.06622 | 34043 ft | 457 kts | 252° |
| 2026-05-07 14:45 | 39.80329 | -5.14569 | 34043 ft | 457 kts | 252° |
| 2026-05-07 14:46 | 39.78656 | -5.22522 | 34042 ft | 457 kts | 252° |
| 2026-05-07 14:46 | 39.76979 | -5.30463 | 34043 ft | 457 kts | 252° |
| 2026-05-07 14:47 | 39.75304 | -5.38382 | 34042 ft | 457 kts | 252° |
| 2026-05-07 14:47 | 39.73631 | -5.46266 | 34043 ft | 457 kts | 252° |
| 2026-05-07 14:48 | 39.71947 | -5.54166 | 34042 ft | 457 kts | 252° |
| 2026-05-07 14:48 | 39.70260 | -5.62053 | 34042 ft | 457 kts | 252° |
| 2026-05-07 14:49 | 39.68573 | -5.69915 | 34043 ft | 457 kts | 252° |
| 2026-05-07 14:49 | 39.66871 | -5.77839 | 34043 ft | 457 kts | 252° |
| 2026-05-07 14:50 | 39.65158 | -5.85766 | 34043 ft | 456 kts | 252° |
| 2026-05-07 14:50 | 39.63448 | -5.93643 | 34043 ft | 456 kts | 252° |
| 2026-05-07 14:51 | 39.61728 | -6.01530 | 34043 ft | 456 kts | 252° |
| 2026-05-07 14:51 | 39.60003 | -6.09413 | 34042 ft | 456 kts | 252° |
| 2026-05-07 14:52 | 39.58268 | -6.17312 | 34042 ft | 456 kts | 252° |
| 2026-05-07 14:52 | 39.56524 | -6.25215 | 34042 ft | 456 kts | 252° |
| 2026-05-07 14:53 | 39.54777 | -6.33102 | 34043 ft | 456 kts | 252° |
| 2026-05-07 14:53 | 39.52940 | -6.40933 | 34042 ft | 455 kts | 249° |
| 2026-05-07 14:54 | 39.50573 | -6.48453 | 34042 ft | 454 kts | 243° |
| 2026-05-07 14:54 | 39.47787 | -6.55767 | 34043 ft | 453 kts | 242° |
| 2026-05-07 14:55 | 39.44974 | -6.63074 | 34043 ft | 453 kts | 242° |
| 2026-05-07 14:55 | 39.42239 | -6.70194 | 34043 ft | 453 kts | 241° |
| 2026-05-07 14:56 | 39.39426 | -6.77512 | 34043 ft | 453 kts | 241° |
| 2026-05-07 14:56 | 39.36632 | -6.84748 | 34043 ft | 453 kts | 241° |
| 2026-05-07 14:57 | 39.33814 | -6.92021 | 34043 ft | 453 kts | 241° |
| 2026-05-07 14:57 | 39.31007 | -6.99241 | 34043 ft | 453 kts | 241° |
| 2026-05-07 14:58 | 39.28233 | -7.06355 | 34036 ft | 429 kts | 242° |
| 2026-05-07 14:58 | 39.26926 | -7.09705 | 34037 ft | 413 kts | 242° |
| 2026-05-07 14:58 | 39.25653 | -7.12960 | 34040 ft | 404 kts | 242° |
| 2026-05-07 14:59 | 39.23107 | -7.19451 | 34042 ft | 405 kts | 242° |
| 2026-05-07 14:59 | 39.21851 | -7.22652 | 33653 ft | 408 kts | 242° |
| 2026-05-07 14:59 | 39.20546 | -7.25900 | 33158 ft | 406 kts | 241° |
| 2026-05-07 15:00 | 39.19243 | -7.29098 | 32706 ft | 403 kts | 241° |
| 2026-05-07 15:00 | 39.17947 | -7.32268 | 32255 ft | 400 kts | 241° |
| 2026-05-07 15:00 | 39.16658 | -7.35417 | 31803 ft | 397 kts | 241° |
| 2026-05-07 15:00 | 39.15371 | -7.38560 | 31177 ft | 399 kts | 241° |
| 2026-05-07 15:01 | 39.14090 | -7.41688 | 30557 ft | 401 kts | 241° |
| 2026-05-07 15:01 | 39.12779 | -7.44885 | 29927 ft | 402 kts | 241° |
| 2026-05-07 15:01 | 39.11474 | -7.48063 | 29303 ft | 404 kts | 241° |
| 2026-05-07 15:01 | 39.10171 | -7.51233 | 28684 ft | 405 kts | 241° |
| 2026-05-07 15:02 | 39.08859 | -7.54423 | 28060 ft | 406 kts | 241° |
| 2026-05-07 15:02 | 39.07527 | -7.57655 | 27429 ft | 407 kts | 241° |
| 2026-05-07 15:02 | 39.06219 | -7.60826 | 26811 ft | 407 kts | 242° |
| 2026-05-07 15:02 | 39.04892 | -7.64042 | 26186 ft | 408 kts | 242° |
| 2026-05-07 15:03 | 39.03618 | -7.67205 | 25574 ft | 408 kts | 242° |
| 2026-05-07 15:03 | 39.02388 | -7.70461 | 25156 ft | 403 kts | 243° |
| 2026-05-07 15:03 | 39.01185 | -7.73682 | 25043 ft | 389 kts | 242° |
| 2026-05-07 15:03 | 39.00040 | -7.76732 | 25032 ft | 374 kts | 242° |
| 2026-05-07 15:04 | 38.98918 | -7.79699 | 25029 ft | 360 kts | 242° |
| 2026-05-07 15:04 | 38.97832 | -7.82548 | 25035 ft | 357 kts | 241° |
| 2026-05-07 15:04 | 38.96738 | -7.85401 | 24810 ft | 361 kts | 241° |
| 2026-05-07 15:04 | 38.95629 | -7.88292 | 24404 ft | 359 kts | 241° |
| 2026-05-07 15:05 | 38.94528 | -7.91155 | 24001 ft | 357 kts | 241° |
| 2026-05-07 15:05 | 38.93555 | -7.93686 | 23641 ft | 355 kts | 241° |
| 2026-05-07 15:05 | 38.92395 | -7.96704 | 23208 ft | 353 kts | 241° |
| 2026-05-07 15:05 | 38.91295 | -7.99509 | 22798 ft | 350 kts | 239° |
| 2026-05-07 15:06 | 38.90055 | -8.02157 | 22391 ft | 346 kts | 233° |
| 2026-05-07 15:06 | 38.88650 | -8.04582 | 21985 ft | 341 kts | 228° |
| 2026-05-07 15:06 | 38.87135 | -8.06916 | 21582 ft | 341 kts | 228° |
| 2026-05-07 15:06 | 38.85612 | -8.09234 | 21179 ft | 339 kts | 228° |
| 2026-05-07 15:07 | 38.84109 | -8.11525 | 20782 ft | 337 kts | 228° |
| 2026-05-07 15:07 | 38.82619 | -8.13807 | 20384 ft | 335 kts | 228° |
| 2026-05-07 15:07 | 38.81113 | -8.16120 | 19987 ft | 340 kts | 228° |
| 2026-05-07 15:07 | 38.79643 | -8.18381 | 19575 ft | 328 kts | 229° |
| 2026-05-07 15:08 | 38.78219 | -8.20576 | 19160 ft | 313 kts | 229° |
| 2026-05-07 15:08 | 38.76840 | -8.22698 | 18763 ft | 312 kts | 229° |
| 2026-05-07 15:08 | 38.75460 | -8.24817 | 18365 ft | 311 kts | 229° |
| 2026-05-07 15:08 | 38.74070 | -8.26950 | 17968 ft | 314 kts | 229° |
| 2026-05-07 15:09 | 38.72655 | -8.29120 | 17569 ft | 321 kts | 229° |
| 2026-05-07 15:09 | 38.71221 | -8.31319 | 17177 ft | 329 kts | 229° |
| 2026-05-07 15:09 | 38.69816 | -8.33473 | 16791 ft | 327 kts | 229° |
| 2026-05-07 15:09 | 38.68375 | -8.35684 | 16392 ft | 325 kts | 229° |
| 2026-05-07 15:10 | 38.66923 | -8.37908 | 15988 ft | 323 kts | 229° |
| 2026-05-07 15:10 | 38.65499 | -8.40088 | 15590 ft | 320 kts | 229° |
| 2026-05-07 15:10 | 38.64080 | -8.42258 | 15191 ft | 318 kts | 229° |
| 2026-05-07 15:10 | 38.62657 | -8.44432 | 14788 ft | 316 kts | 229° |
| 2026-05-07 15:11 | 38.61253 | -8.46574 | 14389 ft | 314 kts | 229° |
| 2026-05-07 15:11 | 38.59861 | -8.48698 | 14042 ft | 311 kts | 229° |
| 2026-05-07 15:11 | 38.58472 | -8.50815 | 13986 ft | 312 kts | 229° |
| 2026-05-07 15:11 | 38.57093 | -8.52917 | 13979 ft | 312 kts | 229° |
| 2026-05-07 15:12 | 38.55699 | -8.55040 | 13978 ft | 312 kts | 229° |
| 2026-05-07 15:12 | 38.54303 | -8.57158 | 13977 ft | 312 kts | 229° |
| 2026-05-07 15:12 | 38.52890 | -8.59249 | 13977 ft | 312 kts | 228° |
| 2026-05-07 15:12 | 38.51569 | -8.61438 | 13962 ft | 313 kts | 241° |
| 2026-05-07 15:13 | 38.50715 | -8.63999 | 13863 ft | 309 kts | 250° |
| 2026-05-07 15:13 | 38.50066 | -8.66517 | 13384 ft | 290 kts | 251° |
| 2026-05-07 15:13 | 38.49459 | -8.68907 | 12957 ft | 284 kts | 250° |
| 2026-05-07 15:13 | 38.48819 | -8.71294 | 12530 ft | 283 kts | 250° |
| 2026-05-07 15:14 | 38.48158 | -8.73645 | 12106 ft | 281 kts | 249° |
| 2026-05-07 15:14 | 38.47493 | -8.75942 | 11687 ft | 279 kts | 249° |
| 2026-05-07 15:14 | 38.46814 | -8.78254 | 11263 ft | 277 kts | 248° |
| 2026-05-07 15:14 | 38.46140 | -8.80523 | 10844 ft | 276 kts | 248° |
| 2026-05-07 15:15 | 38.45469 | -8.82772 | 10427 ft | 274 kts | 248° |
| 2026-05-07 15:15 | 38.44802 | -8.85002 | 10013 ft | 272 kts | 248° |
| 2026-05-07 15:15 | 38.44126 | -8.87256 | 9592 ft | 270 kts | 248° |
| 2026-05-07 15:15 | 38.43458 | -8.89480 | 9179 ft | 268 kts | 247° |
| 2026-05-07 15:16 | 38.42799 | -8.91673 | 8770 ft | 270 kts | 247° |
| 2026-05-07 15:16 | 38.42120 | -8.93929 | 8366 ft | 272 kts | 247° |
| 2026-05-07 15:16 | 38.41455 | -8.96139 | 8046 ft | 270 kts | 247° |
| 2026-05-07 15:16 | 38.40788 | -8.98342 | 7980 ft | 262 kts | 246° |
| 2026-05-07 15:17 | 38.39988 | -9.00450 | 7977 ft | 264 kts | 238° |
| 2026-05-07 15:17 | 38.39023 | -9.02411 | 7979 ft | 261 kts | 234° |
| 2026-05-07 15:17 | 38.38005 | -9.04344 | 7975 ft | 262 kts | 234° |
| 2026-05-07 15:17 | 38.37007 | -9.06232 | 7961 ft | 255 kts | 234° |
| 2026-05-07 15:18 | 38.36066 | -9.08146 | 7684 ft | 255 kts | 245° |
| 2026-05-07 15:18 | 38.35834 | -9.10340 | 7342 ft | 257 kts | 282° |
| 2026-05-07 15:18 | 38.36661 | -9.12338 | 7048 ft | 255 kts | 315° |
| 2026-05-07 15:18 | 38.38122 | -9.13544 | 6752 ft | 252 kts | 340° |
| 2026-05-07 15:19 | 38.39775 | -9.14287 | 6465 ft | 251 kts | 343° |
| 2026-05-07 15:19 | 38.41430 | -9.14986 | 6165 ft | 251 kts | 342° |
| 2026-05-07 15:19 | 38.43066 | -9.15717 | 5866 ft | 251 kts | 340° |
| 2026-05-07 15:19 | 38.44705 | -9.16487 | 5566 ft | 250 kts | 339° |
| 2026-05-07 15:20 | 38.46315 | -9.17273 | 5269 ft | 250 kts | 339° |
| 2026-05-07 15:20 | 38.47940 | -9.18072 | 4967 ft | 249 kts | 340° |
| 2026-05-07 15:20 | 38.49540 | -9.18862 | 4671 ft | 248 kts | 339° |
| 2026-05-07 15:20 | 38.51141 | -9.19663 | 4373 ft | 248 kts | 339° |
| 2026-05-07 15:21 | 38.52744 | -9.20458 | 4079 ft | 247 kts | 339° |
| 2026-05-07 15:21 | 38.54317 | -9.21234 | 3981 ft | 237 kts | 338° |
| 2026-05-07 15:21 | 38.55793 | -9.21967 | 3984 ft | 219 kts | 339° |
| 2026-05-07 15:21 | 38.57182 | -9.22660 | 3786 ft | 210 kts | 337° |
| 2026-05-07 15:22 | 38.58527 | -9.23332 | 3572 ft | 202 kts | 337° |
| 2026-05-07 15:22 | 38.59866 | -9.23601 | 3192 ft | 200 kts | 8° |
| 2026-05-07 15:22 | 38.61105 | -9.23034 | 2973 ft | 179 kts | 27° |
| 2026-05-07 15:22 | 38.62183 | -9.22294 | 2995 ft | 180 kts | 28° |
| 2026-05-07 15:23 | 38.63291 | -9.21580 | 2977 ft | 176 kts | 29° |
| 2026-05-07 15:23 | 38.64414 | -9.20923 | 2905 ft | 177 kts | 25° |
| 2026-05-07 15:23 | 38.65552 | -9.20305 | 2671 ft | 177 kts | 24° |
| 2026-05-07 15:23 | 38.66672 | -9.19713 | 2437 ft | 173 kts | 23° |
| 2026-05-07 15:24 | 38.67745 | -9.19143 | 2199 ft | 165 kts | 21° |
| 2026-05-07 15:24 | 38.68811 | -9.18577 | 1993 ft | 167 kts | 25° |
| 2026-05-07 15:24 | 38.69877 | -9.18008 | 1774 ft | 166 kts | 25° |
| 2026-05-07 15:24 | 38.70939 | -9.17439 | 1565 ft | 166 kts | 25° |
| 2026-05-07 15:25 | 38.72004 | -9.16865 | 1337 ft | 165 kts | 21° |
| 2026-05-07 15:25 | 38.73060 | -9.16304 | 1127 ft | 166 kts | 25° |
| 2026-05-07 15:25 | 38.74102 | -9.15744 | 904 ft | 164 kts | 21° |
| 2026-05-07 15:25 | 38.75122 | -9.15211 | 1296 ft | 149 kts | 22° |
| 2026-05-07 15:26 | 38.76059 | -9.14617 | 1237 ft | 154 kts | 31° |
| 2026-05-07 15:26 | 38.77142 | -9.13883 | 1120 ft | 192 kts | 28° |
| 2026-05-07 15:26 | 38.78269 | -9.13190 | 1880 ft | 173 kts | 26° |
| 2026-05-07 15:26 | 38.79417 | -9.12708 | 2276 ft | 186 kts | 13° |
| 2026-05-07 15:27 | 38.80717 | -9.12149 | 2119 ft | 201 kts | 27° |
| 2026-05-07 15:27 | 38.81955 | -9.11187 | 1849 ft | 223 kts | 34° |
| 2026-05-07 15:27 | 38.83305 | -9.10039 | 2244 ft | 237 kts | 35° |
| 2026-05-07 15:27 | 38.84672 | -9.08835 | 3000 ft | 242 kts | 35° |
| 2026-05-07 15:28 | 38.86044 | -9.07626 | 3753 ft | 244 kts | 36° |
| 2026-05-07 15:28 | 38.87480 | -9.06400 | 4509 ft | 253 kts | 34° |
| 2026-05-07 15:28 | 38.88953 | -9.05142 | 5260 ft | 261 kts | 37° |
| 2026-05-07 15:28 | 38.90290 | -9.03512 | 5734 ft | 273 kts | 59° |
| 2026-05-07 15:29 | 38.90958 | -9.01270 | 5961 ft | 271 kts | 83° |
| 2026-05-07 15:29 | 38.91152 | -8.98838 | 5970 ft | 272 kts | 90° |
| 2026-05-07 15:29 | 38.90839 | -8.96542 | 5950 ft | 268 kts | 120° |
| 2026-05-07 15:29 | 38.89654 | -8.94752 | 5981 ft | 266 kts | 141° |
| 2026-05-07 15:30 | 38.88224 | -8.93255 | 5977 ft | 266 kts | 143° |
| 2026-05-07 15:30 | 38.86785 | -8.91767 | 5976 ft | 265 kts | 142° |
| 2026-05-07 15:30 | 38.85370 | -8.90272 | 5975 ft | 264 kts | 140° |
| 2026-05-07 15:30 | 38.83960 | -8.88747 | 5974 ft | 264 kts | 141° |
| 2026-05-07 15:31 | 38.82560 | -8.87210 | 5973 ft | 264 kts | 140° |
| 2026-05-07 15:31 | 38.81161 | -8.85669 | 5975 ft | 265 kts | 140° |
| 2026-05-07 15:31 | 38.79768 | -8.84140 | 5975 ft | 264 kts | 139° |
| 2026-05-07 15:31 | 38.78387 | -8.82615 | 5975 ft | 264 kts | 139° |
| 2026-05-07 15:32 | 38.77002 | -8.81083 | 5975 ft | 264 kts | 140° |
| 2026-05-07 15:32 | 38.75608 | -8.79532 | 5975 ft | 266 kts | 140° |
| 2026-05-07 15:32 | 38.74210 | -8.77988 | 5975 ft | 266 kts | 140° |
| 2026-05-07 15:32 | 38.72812 | -8.76447 | 5975 ft | 266 kts | 141° |
| 2026-05-07 15:33 | 38.71410 | -8.74902 | 5975 ft | 266 kts | 141° |
| 2026-05-07 15:33 | 38.70003 | -8.73353 | 5975 ft | 266 kts | 140° |
| 2026-05-07 15:33 | 38.68613 | -8.71822 | 5975 ft | 266 kts | 140° |
| 2026-05-07 15:33 | 38.67219 | -8.70289 | 5975 ft | 264 kts | 139° |
| 2026-05-07 15:34 | 38.65831 | -8.68756 | 5975 ft | 264 kts | 139° |
| 2026-05-07 15:34 | 38.64451 | -8.67226 | 5974 ft | 264 kts | 140° |
| 2026-05-07 15:34 | 38.63056 | -8.65688 | 5975 ft | 265 kts | 139° |
| 2026-05-07 15:34 | 38.61657 | -8.64153 | 5975 ft | 264 kts | 139° |
| 2026-05-07 15:35 | 38.60283 | -8.62645 | 5975 ft | 264 kts | 139° |
| 2026-05-07 15:35 | 38.58893 | -8.61115 | 5976 ft | 264 kts | 139° |
| 2026-05-07 15:35 | 38.57642 | -8.59403 | 5959 ft | 267 kts | 121° |
| 2026-05-07 15:35 | 38.57090 | -8.57145 | 5974 ft | 269 kts | 94° |
| 2026-05-07 15:36 | 38.57380 | -8.54795 | 5970 ft | 273 kts | 68° |
| 2026-05-07 15:36 | 38.58496 | -8.52838 | 5967 ft | 280 kts | 39° |
| 2026-05-07 15:36 | 38.60236 | -8.51748 | 5966 ft | 283 kts | 10° |
| 2026-05-07 15:36 | 38.62184 | -8.51845 | 5977 ft | 284 kts | 343° |
| 2026-05-07 15:37 | 38.64025 | -8.52744 | 5979 ft | 283 kts | 336° |
| 2026-05-07 15:37 | 38.65837 | -8.53752 | 5976 ft | 283 kts | 336° |
| 2026-05-07 15:37 | 38.67639 | -8.54741 | 5976 ft | 283 kts | 336° |
| 2026-05-07 15:37 | 38.69457 | -8.55708 | 5975 ft | 283 kts | 336° |
| 2026-05-07 15:38 | 38.71281 | -8.56668 | 5975 ft | 282 kts | 337° |
| 2026-05-07 15:38 | 38.73096 | -8.57614 | 5974 ft | 283 kts | 337° |
| 2026-05-07 15:38 | 38.74922 | -8.58565 | 5974 ft | 283 kts | 338° |
| 2026-05-07 15:38 | 38.76729 | -8.59492 | 5975 ft | 283 kts | 339° |
| 2026-05-07 15:39 | 38.78560 | -8.60430 | 5975 ft | 283 kts | 338° |
| 2026-05-07 15:39 | 38.80387 | -8.61369 | 5975 ft | 283 kts | 338° |
| 2026-05-07 15:39 | 38.82206 | -8.62307 | 5975 ft | 283 kts | 338° |
| 2026-05-07 15:39 | 38.84032 | -8.63250 | 5975 ft | 283 kts | 338° |
| 2026-05-07 15:40 | 38.85851 | -8.64192 | 5975 ft | 283 kts | 338° |
| 2026-05-07 15:40 | 38.87671 | -8.65131 | 5975 ft | 283 kts | 338° |
| 2026-05-07 15:40 | 38.89486 | -8.66064 | 5974 ft | 281 kts | 338° |
| 2026-05-07 15:40 | 38.91263 | -8.66978 | 5972 ft | 266 kts | 336° |
| 2026-05-07 15:41 | 38.92926 | -8.67841 | 5965 ft | 252 kts | 338° |
| 2026-05-07 15:41 | 38.94509 | -8.68670 | 5973 ft | 245 kts | 338° |
| 2026-05-07 15:41 | 38.96106 | -8.69427 | 5975 ft | 246 kts | 342° |
| 2026-05-07 15:41 | 38.97771 | -8.69980 | 5977 ft | 246 kts | 347° |
| 2026-05-07 15:42 | 38.99433 | -8.70394 | 5976 ft | 246 kts | 349° |
| 2026-05-07 15:42 | 39.01123 | -8.70784 | 5976 ft | 245 kts | 348° |
| 2026-05-07 15:42 | 39.02783 | -8.71175 | 5975 ft | 244 kts | 347° |
| 2026-05-07 15:42 | 39.04403 | -8.71798 | 5952 ft | 242 kts | 324° |
| 2026-05-07 15:43 | 39.05447 | -8.73417 | 5951 ft | 237 kts | 285° |
| 2026-05-07 15:43 | 39.05523 | -8.75459 | 5666 ft | 232 kts | 253° |
| 2026-05-07 15:43 | 39.04946 | -8.77337 | 5371 ft | 230 kts | 242° |
| 2026-05-07 15:43 | 39.04275 | -8.79212 | 5083 ft | 230 kts | 243° |
| 2026-05-07 15:44 | 39.03632 | -8.81080 | 4787 ft | 230 kts | 244° |
| 2026-05-07 15:44 | 39.03009 | -8.82973 | 4541 ft | 226 kts | 245° |
| 2026-05-07 15:44 | 39.02432 | -8.84787 | 4488 ft | 215 kts | 246° |
| 2026-05-07 15:44 | 39.01901 | -8.86503 | 4423 ft | 204 kts | 245° |
| 2026-05-07 15:45 | 39.01390 | -8.88174 | 4351 ft | 192 kts | 245° |
| 2026-05-07 15:45 | 39.00915 | -8.89716 | 4300 ft | 186 kts | 246° |
| 2026-05-07 15:45 | 39.00437 | -8.91274 | 4247 ft | 189 kts | 245° |
| 2026-05-07 15:45 | 38.99950 | -8.92851 | 4209 ft | 188 kts | 246° |
| 2026-05-07 15:46 | 38.99010 | -8.95921 | 4095 ft | 186 kts | 245° |
| 2026-05-07 15:46 | 38.98525 | -8.97510 | 4051 ft | 190 kts | 245° |